Terminal Aerodrome Forecast
Issued by NWS Sioux Falls, SD

Home | Current Version | Previous Version | Text Only | Print | Product List | Glossary On
Versions: 1 2 3 4 5 6 7 8 9 10 11 12 13 14 15 16 17 18 19
000
FTUS43 KFSD 260406 AAA
TAFSUX
TAF AMD
KSUX 260406Z 2604/2624 18009KT P6SM SCT070
      TEMPO 2604/2605 32020G25KT
     FM260500 19005KT P6SM VCTS SCT060CB
     FM260700 25004KT P6SM SCT120 SCT250
     FM261500 31005KT P6SM FEW040
     FM262000 03006KT P6SM SCT120 SCT250=

USA.gov is the U.S. government's official web portal to all federal, state and local government web resources and services.